createdAt,value
2022-10-12T00:01:43.467Z,1.58
2022-10-12T00:04:40.321Z,1.67
2022-10-12T00:07:37.850Z,1.70
2022-10-12T00:10:39.536Z,1.63
2022-10-12T00:13:36.400Z,2.28
2022-10-12T00:16:34.806Z,2.03
2022-10-12T00:19:31.662Z,1.50
2022-10-12T00:22:28.514Z,1.92
2022-10-12T00:25:25.359Z,1.75
2022-10-12T00:28:22.254Z,1.70
2022-10-12T00:31:20.956Z,2.72
2022-10-12T00:34:17.780Z,2.03
2022-10-12T00:37:14.610Z,2.00
2022-10-12T00:40:12.589Z,2.45
2022-10-12T00:43:34.391Z,2.08
2022-10-12T00:46:41.999Z,2.15
2022-10-12T00:49:39.262Z,1.70
2022-10-12T00:52:48.740Z,2.10
2022-10-12T00:56:00.122Z,1.30
2022-10-12T00:59:02.549Z,1.48
2022-10-12T01:01:59.487Z,1.98
2022-10-12T01:04:57.634Z,1.98
2022-10-12T01:07:54.460Z,1.95
2022-10-12T01:10:51.363Z,1.98
2022-10-12T01:13:48.479Z,2.30
2022-10-12T01:17:03.103Z,1.90
2022-10-12T01:20:23.945Z,2.13
2022-10-12T01:23:53.796Z,2.08
2022-10-12T01:27:24.288Z,1.80
2022-10-12T01:30:36.447Z,1.80
2022-10-12T01:33:40.757Z,2.00
2022-10-12T01:36:42.754Z,2.22
2022-10-12T01:39:49.473Z,1.80
2022-10-12T01:42:47.761Z,2.03
2022-10-12T01:45:44.896Z,2.28
2022-10-12T01:48:43.441Z,2.05
2022-10-12T01:52:27.261Z,2.22
2022-10-12T01:55:54.065Z,1.52
2022-10-12T01:59:37.820Z,2.10
2022-10-12T02:03:02.289Z,1.90
2022-10-12T02:06:22.422Z,1.90
2022-10-12T02:09:30.605Z,2.00
2022-10-12T02:12:31.396Z,1.70
2022-10-12T02:18:29.040Z,1.77
2022-10-12T02:21:33.000Z,2.00
2022-10-12T02:24:35.182Z,2.20
2022-10-12T02:27:36.798Z,2.50
2022-10-12T02:30:43.222Z,2.35
2022-10-12T02:33:56.782Z,2.20
2022-10-12T02:37:08.100Z,2.15
2022-10-12T02:40:19.441Z,2.03
2022-10-12T02:43:40.135Z,2.20
2022-10-12T02:46:38.816Z,2.10
2022-10-12T02:49:37.777Z,2.10
2022-10-12T02:52:35.353Z,2.65
2022-10-12T02:55:37.308Z,2.38
2022-10-12T02:58:34.237Z,1.98
2022-10-12T03:01:31.149Z,2.20
2022-10-12T03:04:28.097Z,2.10
2022-10-12T03:07:24.989Z,2.50
2022-10-12T03:10:21.825Z,2.50
2022-10-12T03:13:19.394Z,2.08
2022-10-12T03:16:16.266Z,3.13
2022-10-12T03:19:13.252Z,2.65
2022-10-12T03:22:10.096Z,2.28
2022-10-12T03:25:07.414Z,2.90
2022-10-12T03:28:04.301Z,2.38
2022-10-12T03:31:01.601Z,2.95
2022-10-12T03:33:58.462Z,2.97
2022-10-12T03:36:55.344Z,3.20
2022-10-12T03:39:52.176Z,2.33
2022-10-12T03:42:49.050Z,3.03
2022-10-12T03:45:46.169Z,2.85
2022-10-12T03:48:43.000Z,3.17
2022-10-12T03:51:39.872Z,3.30
2022-10-12T03:54:36.730Z,2.72
2022-10-12T03:57:33.589Z,2.15
2022-10-12T04:00:30.594Z,2.40
2022-10-12T04:03:27.450Z,2.40
2022-10-12T04:06:24.401Z,2.38
2022-10-12T04:09:21.227Z,2.85
2022-10-12T04:12:18.093Z,3.30
2022-10-12T04:15:15.193Z,2.65
2022-10-12T04:18:12.525Z,3.10
2022-10-12T04:21:15.834Z,4.07
2022-10-12T04:24:12.679Z,3.35
2022-10-12T04:27:09.540Z,4.65
2022-10-12T04:30:07.193Z,4.85
2022-10-12T04:33:04.578Z,3.20
2022-10-12T04:36:01.458Z,3.55
2022-10-12T04:39:01.065Z,4.40
2022-10-12T04:41:58.319Z,4.70
2022-10-12T04:44:55.199Z,3.90
2022-10-12T04:47:52.037Z,3.88
2022-10-12T04:50:48.897Z,3.40
2022-10-12T04:53:45.825Z,3.17
2022-10-12T04:56:47.534Z,2.50
2022-10-12T04:59:44.890Z,2.75
2022-10-12T05:02:41.828Z,3.60
2022-10-12T05:05:38.700Z,3.53
2022-10-12T05:08:35.541Z,3.20
2022-10-12T05:11:32.421Z,3.47
2022-10-12T05:14:33.522Z,3.65
2022-10-12T05:17:33.009Z,5.40
2022-10-12T05:20:29.873Z,4.10
2022-10-12T05:23:26.689Z,5.18
2022-10-12T05:26:23.546Z,5.28
2022-10-12T05:29:20.390Z,5.68
2022-10-12T05:32:17.315Z,4.60
2022-10-12T05:35:14.363Z,3.33
2022-10-12T05:38:11.705Z,4.40
2022-10-12T05:41:08.576Z,3.78
2022-10-12T05:44:05.970Z,5.45
2022-10-12T05:47:03.124Z,6.07
2022-10-12T05:50:00.037Z,5.68
2022-10-12T05:52:56.846Z,7.03
2022-10-12T05:55:56.549Z,5.88
2022-10-12T05:58:53.388Z,5.30
2022-10-12T06:01:50.280Z,5.18
2022-10-12T06:04:47.152Z,5.65
2022-10-12T06:07:44.037Z,5.85
2022-10-12T06:10:47.247Z,7.03
2022-10-12T06:13:44.142Z,6.55
2022-10-12T06:16:40.980Z,5.55
2022-10-12T06:19:37.869Z,5.70
2022-10-12T06:22:35.356Z,5.63
2022-10-12T06:25:32.588Z,5.88
2022-10-12T06:28:29.572Z,5.68
2022-10-12T06:31:27.721Z,6.00
2022-10-12T06:34:24.611Z,6.13
2022-10-12T06:37:48.125Z,5.70
2022-10-12T06:40:38.254Z,6.80
2022-10-12T06:43:35.261Z,7.28
2022-10-12T06:46:32.332Z,6.65
2022-10-12T06:49:29.240Z,5.05
2022-10-12T06:52:26.105Z,6.25
2022-10-12T06:55:22.952Z,7.05
2022-10-12T06:58:19.889Z,6.68
2022-10-12T07:01:16.830Z,8.73
2022-10-12T07:04:13.718Z,16.63
2022-10-12T07:07:10.544Z,9.75
2022-10-12T07:10:08.645Z,13.15
2022-10-12T07:13:05.739Z,8.52
2022-10-12T07:16:02.643Z,8.02
2022-10-12T07:18:59.480Z,8.20
2022-10-12T07:21:56.314Z,6.85
2022-10-12T07:24:53.160Z,9.23
2022-10-12T07:27:50.261Z,7.65
2022-10-12T07:30:47.633Z,7.60
2022-10-12T07:33:44.521Z,7.28
2022-10-12T07:36:58.705Z,7.80
2022-10-12T07:39:57.693Z,7.57
2022-10-12T07:43:14.764Z,7.10
2022-10-12T07:46:12.288Z,6.93
2022-10-12T07:49:11.323Z,6.70
2022-10-12T07:52:08.176Z,7.25
2022-10-12T07:55:05.479Z,6.85
2022-10-12T07:58:02.324Z,7.30
2022-10-12T08:01:10.096Z,7.43
2022-10-12T08:04:06.954Z,6.45
2022-10-12T08:07:04.021Z,6.63
2022-10-12T08:10:00.861Z,6.88
2022-10-12T08:12:57.744Z,6.53
2022-10-12T08:15:54.595Z,5.75
2022-10-12T08:18:51.628Z,6.60
2022-10-12T08:21:50.421Z,5.63
2022-10-12T08:24:47.267Z,6.43
2022-10-12T08:27:44.139Z,6.95
2022-10-12T08:30:40.979Z,6.78
2022-10-12T08:33:37.880Z,6.97
2022-10-12T08:36:34.837Z,6.25
2022-10-12T08:39:31.665Z,5.85
2022-10-12T08:42:48.612Z,6.55
2022-10-12T08:45:56.015Z,5.40
2022-10-12T08:49:02.890Z,5.35
2022-10-12T08:52:06.288Z,5.65
2022-10-12T08:55:43.749Z,5.85
2022-10-12T08:58:40.691Z,4.43
2022-10-12T09:01:59.326Z,5.38
2022-10-12T09:05:16.775Z,5.00
2022-10-12T09:08:36.801Z,5.20
2022-10-12T09:11:58.365Z,5.33
2022-10-12T09:15:01.012Z,4.85
2022-10-12T09:18:00.421Z,5.68
2022-10-12T09:20:59.350Z,5.35
2022-10-12T09:23:57.633Z,5.60
2022-10-12T09:27:00.710Z,6.10
2022-10-12T09:30:03.668Z,5.63
2022-10-12T09:33:37.998Z,5.90
2022-10-12T09:36:41.144Z,4.93
2022-10-12T09:39:39.615Z,5.95
2022-10-12T09:42:37.296Z,5.30
2022-10-12T09:45:35.184Z,5.65
2022-10-12T09:48:32.024Z,6.60
2022-10-12T09:51:30.692Z,5.75
2022-10-12T09:54:28.545Z,6.38
2022-10-12T09:57:39.397Z,6.43
2022-10-12T10:03:33.130Z,5.60
2022-10-12T10:06:30.002Z,4.47
2022-10-12T10:09:34.880Z,4.90
2022-10-12T10:12:32.181Z,8.20
2022-10-12T10:15:35.677Z,6.45
2022-10-12T10:18:55.914Z,5.20
2022-10-12T10:21:54.531Z,8.75
2022-10-12T10:24:59.750Z,5.60
2022-10-12T10:28:23.504Z,6.18
2022-10-12T10:31:28.249Z,5.47
2022-10-12T10:34:25.504Z,6.15
2022-10-12T10:37:23.447Z,6.32
2022-10-12T10:40:29.385Z,4.95
2022-10-12T10:43:31.482Z,6.05
2022-10-12T10:46:33.920Z,4.40
2022-10-12T10:49:57.474Z,5.03
2022-10-12T10:53:00.778Z,5.78
2022-10-12T10:56:14.124Z,6.55
2022-10-12T10:59:27.287Z,6.13
2022-10-12T11:02:32.946Z,5.63
2022-10-12T11:05:38.260Z,5.38
2022-10-12T11:08:36.867Z,5.80
2022-10-12T11:11:38.127Z,5.68
2022-10-12T11:14:47.992Z,6.53
2022-10-12T11:17:52.054Z,7.47
2022-10-12T11:21:22.515Z,6.45
2022-10-12T11:24:33.953Z,6.47
2022-10-12T11:27:39.860Z,8.25
2022-10-12T11:30:45.425Z,5.90
2022-10-12T11:33:44.802Z,4.75
2022-10-12T11:37:07.539Z,5.10
2022-10-12T11:40:23.586Z,5.18
2022-10-12T11:43:30.348Z,4.68
2022-10-12T11:46:49.012Z,4.43
2022-10-12T11:49:59.856Z,4.00
2022-10-12T11:53:00.059Z,4.22
2022-10-12T11:56:20.060Z,4.82
2022-10-12T11:59:33.769Z,4.07
2022-10-12T12:02:41.655Z,4.63
2022-10-12T12:05:38.509Z,4.43
2022-10-12T12:08:41.141Z,5.13
2022-10-12T12:11:38.032Z,5.13
2022-10-12T12:14:34.712Z,5.05
2022-10-12T12:17:33.160Z,5.32
2022-10-12T12:21:00.715Z,6.28
2022-10-12T12:23:57.659Z,4.93
2022-10-12T12:26:54.565Z,5.57
2022-10-12T12:29:53.613Z,5.05
2022-10-12T12:33:07.549Z,4.05
2022-10-12T12:36:08.313Z,4.65
2022-10-12T12:39:08.631Z,3.88
2022-10-12T12:42:09.626Z,4.00
2022-10-12T12:45:32.487Z,4.50
2022-10-12T12:48:46.966Z,4.00
2022-10-12T12:51:44.868Z,4.40
2022-10-12T12:54:53.120Z,4.38
2022-10-12T12:58:02.377Z,3.40
2022-10-12T13:01:27.373Z,4.65
2022-10-12T13:04:46.959Z,5.28
2022-10-12T13:08:32.380Z,4.47
2022-10-12T13:12:12.432Z,3.15
2022-10-12T13:15:20.431Z,4.13
2022-10-12T13:18:55.817Z,4.07
2022-10-12T13:21:55.562Z,3.92
2022-10-12T13:24:59.423Z,2.92
2022-10-12T13:27:58.223Z,3.45
2022-10-12T13:31:09.462Z,4.32
2022-10-12T13:34:29.632Z,4.75
2022-10-12T13:37:32.573Z,3.72
2022-10-12T13:40:35.842Z,4.07
2022-10-12T13:44:00.684Z,3.60
2022-10-12T13:47:01.288Z,3.45
2022-10-12T13:50:00.057Z,4.00
2022-10-12T13:52:56.969Z,3.72
2022-10-12T13:56:04.040Z,3.67
2022-10-12T13:59:06.718Z,3.60
2022-10-12T14:02:22.418Z,3.50
2022-10-12T14:05:22.808Z,3.78
2022-10-12T14:08:27.002Z,5.03
2022-10-12T14:11:26.630Z,4.20
2022-10-12T14:14:36.528Z,3.70
2022-10-12T14:17:33.377Z,3.60
2022-10-12T14:20:37.671Z,3.20
2022-10-12T14:23:34.558Z,3.47
2022-10-12T14:26:45.841Z,3.83
2022-10-12T14:29:45.602Z,3.58
2022-10-12T14:32:44.321Z,3.30
2022-10-12T14:35:43.984Z,3.72
2022-10-12T14:38:49.506Z,3.42
2022-10-12T14:41:50.939Z,3.70
2022-10-12T14:44:49.022Z,3.20
2022-10-12T14:47:46.282Z,3.25
2022-10-12T14:50:44.357Z,3.80
2022-10-12T14:53:41.471Z,4.00
2022-10-12T14:56:39.053Z,3.80
2022-10-12T14:59:35.903Z,4.05
2022-10-12T15:02:33.467Z,4.18
2022-10-12T15:05:32.655Z,3.75
2022-10-12T15:08:29.485Z,3.50
2022-10-12T15:11:26.350Z,3.75
2022-10-12T15:14:23.203Z,4.28
2022-10-12T15:17:20.832Z,3.90
2022-10-12T15:20:18.990Z,3.83
2022-10-12T15:23:15.910Z,4.18
2022-10-12T15:26:16.783Z,4.25
2022-10-12T15:29:13.655Z,4.85
2022-10-12T15:32:13.650Z,4.10
2022-10-12T15:35:22.780Z,9.32
2022-10-12T15:38:19.763Z,5.80
2022-10-12T15:41:20.323Z,5.80
2022-10-12T15:44:17.536Z,4.45
2022-10-12T15:47:14.616Z,7.93
2022-10-12T15:50:11.857Z,17.75
2022-10-12T15:53:22.130Z,10.82
2022-10-12T15:56:20.496Z,7.70
2022-10-12T15:59:17.357Z,6.97
2022-10-12T16:02:14.299Z,8.02
2022-10-12T16:05:22.710Z,7.32
2022-10-12T16:08:19.705Z,7.65
2022-10-12T16:11:18.277Z,8.98
2022-10-12T16:14:15.204Z,6.82
2022-10-12T16:17:12.324Z,25.13
2022-10-12T16:20:10.920Z,15.75
2022-10-12T16:23:14.116Z,15.90
2022-10-12T16:26:14.519Z,10.13
2022-10-12T16:29:11.365Z,12.02
2022-10-12T16:32:08.181Z,20.98
2022-10-12T16:35:06.609Z,18.45
2022-10-12T16:38:03.583Z,25.15
2022-10-12T16:41:00.414Z,14.00
2022-10-12T16:43:57.267Z,26.60
2022-10-12T16:46:54.111Z,15.07
2022-10-12T16:49:52.177Z,12.35
2022-10-12T16:52:49.655Z,19.58
2022-10-12T16:55:47.326Z,18.35
2022-10-12T16:58:44.185Z,17.40
2022-10-12T17:01:41.429Z,13.90
2022-10-12T17:04:38.378Z,13.30
2022-10-12T17:07:35.234Z,17.48
2022-10-12T17:10:32.081Z,31.48
2022-10-12T17:13:32.762Z,24.52
2022-10-12T17:16:48.054Z,47.30
2022-10-12T17:19:45.016Z,16.65
2022-10-12T17:22:41.891Z,23.48
2022-10-12T17:25:38.829Z,26.15
2022-10-12T17:28:40.245Z,25.92
2022-10-12T17:31:37.549Z,22.48
2022-10-12T17:34:38.483Z,22.45
2022-10-12T17:37:35.360Z,16.73
2022-10-12T17:40:32.180Z,36.03
2022-10-12T17:43:29.163Z,28.33
2022-10-12T17:46:26.162Z,28.95
2022-10-12T17:49:24.844Z,24.23
2022-10-12T17:52:21.939Z,41.55
2022-10-12T17:55:36.540Z,31.45
2022-10-12T17:58:36.430Z,78.18
2022-10-12T18:01:33.936Z,35.00
2022-10-12T18:04:30.845Z,23.95
2022-10-12T18:07:27.750Z,21.85
2022-10-12T18:10:27.714Z,16.48
2022-10-12T18:16:30.322Z,19.58
2022-10-12T18:19:27.213Z,16.30
2022-10-12T18:22:24.087Z,16.13
2022-10-12T18:25:20.933Z,15.80
2022-10-12T18:28:18.177Z,17.42
2022-10-12T18:31:26.734Z,22.40
2022-10-12T18:34:24.105Z,18.60
2022-10-12T18:37:20.987Z,17.27
2022-10-12T18:40:18.026Z,18.35
2022-10-12T18:43:15.329Z,11.65
2022-10-12T18:46:15.284Z,14.43
2022-10-12T18:49:12.221Z,19.80
2022-10-12T18:52:09.158Z,28.05
2022-10-12T18:55:06.608Z,24.40
2022-10-12T18:58:03.815Z,22.20
2022-10-12T19:01:00.805Z,18.88
2022-10-12T19:04:00.841Z,16.77
2022-10-12T19:06:58.050Z,16.10
2022-10-12T19:09:55.284Z,14.60
2022-10-12T19:12:52.115Z,15.65
2022-10-12T19:15:48.947Z,16.73
2022-10-12T19:18:45.878Z,12.98
2022-10-12T19:21:44.321Z,12.43
2022-10-12T19:24:41.185Z,11.52
2022-10-12T19:27:38.017Z,9.38
2022-10-12T19:30:38.609Z,10.10
2022-10-12T19:33:35.518Z,9.45
2022-10-12T19:36:33.645Z,11.18
2022-10-12T19:39:32.081Z,9.48
2022-10-12T19:42:28.896Z,11.00
2022-10-12T19:45:25.747Z,11.05
2022-10-12T19:48:22.615Z,11.93
2022-10-12T19:51:21.443Z,10.63
2022-10-12T19:54:19.646Z,9.15
2022-10-12T19:57:16.502Z,10.95
2022-10-12T20:00:14.316Z,10.40
2022-10-12T20:03:11.162Z,10.73
2022-10-12T20:06:10.198Z,10.50
2022-10-12T20:09:08.189Z,10.88
2022-10-12T20:12:05.103Z,11.10
2022-10-12T20:15:02.017Z,11.95
2022-10-12T20:17:58.881Z,13.45
2022-10-12T20:20:55.965Z,10.45
2022-10-12T20:23:52.890Z,10.98
2022-10-12T20:26:50.777Z,10.82
2022-10-12T20:29:47.716Z,9.88
2022-10-12T20:32:44.718Z,8.98
2022-10-12T20:35:50.720Z,9.55
2022-10-12T20:38:47.557Z,7.78
2022-10-12T20:41:44.420Z,8.07
2022-10-12T20:44:41.265Z,7.90
2022-10-12T20:47:38.097Z,8.55
2022-10-12T20:50:35.140Z,8.48
2022-10-12T20:53:33.543Z,9.50
2022-10-12T20:56:32.822Z,10.70
2022-10-12T20:59:31.664Z,12.57
2022-10-12T21:02:28.504Z,12.70
2022-10-12T21:05:25.473Z,12.80
2022-10-12T21:08:22.404Z,13.02
2022-10-12T21:11:19.754Z,12.60
2022-10-12T21:14:16.617Z,10.18
2022-10-12T21:17:13.521Z,11.07
2022-10-12T21:20:10.780Z,10.68
2022-10-12T21:23:07.629Z,12.60
2022-10-12T21:26:19.791Z,12.57
2022-10-12T21:29:16.624Z,12.73
2022-10-12T21:32:13.453Z,13.38
2022-10-12T21:35:10.285Z,11.98
2022-10-12T21:38:07.593Z,12.57
2022-10-12T21:41:06.165Z,13.02
2022-10-12T21:44:03.301Z,11.95
2022-10-12T21:47:00.135Z,12.70
2022-10-12T21:49:56.964Z,11.38
2022-10-12T21:52:59.298Z,10.73
2022-10-12T21:55:57.216Z,10.90
2022-10-12T21:58:59.446Z,9.60
2022-10-12T22:01:56.336Z,9.93
2022-10-12T22:04:53.169Z,9.70
2022-10-12T22:07:50.024Z,9.68
2022-10-12T22:10:46.856Z,9.82
2022-10-12T22:13:43.722Z,9.75
2022-10-12T22:16:43.174Z,8.88
2022-10-12T22:19:40.130Z,8.38
2022-10-12T22:22:37.004Z,7.85
2022-10-12T22:25:33.866Z,8.05
2022-10-12T22:28:30.956Z,8.00
2022-10-12T22:31:28.456Z,8.18
2022-10-12T22:34:25.309Z,8.05
2022-10-12T22:37:22.547Z,7.90
2022-10-12T22:40:19.393Z,8.82
2022-10-12T22:43:16.236Z,9.02
2022-10-12T22:46:13.238Z,8.02
2022-10-12T22:49:10.086Z,8.23
2022-10-12T22:52:06.932Z,7.85
2022-10-12T22:55:04.058Z,6.93
2022-10-12T22:58:00.932Z,8.20
2022-10-12T23:01:17.501Z,8.10
2022-10-12T23:04:14.334Z,9.23
2022-10-12T23:07:11.226Z,7.25
2022-10-12T23:10:08.679Z,7.18
2022-10-12T23:13:05.503Z,7.13
2022-10-12T23:16:17.904Z,7.15
2022-10-12T23:19:14.839Z,7.78
2022-10-12T23:22:11.712Z,7.47
2022-10-12T23:25:08.545Z,7.32
2022-10-12T23:28:05.406Z,7.30
2022-10-12T23:31:07.477Z,7.20
2022-10-12T23:34:06.536Z,6.75
2022-10-12T23:37:03.415Z,7.10
2022-10-12T23:40:00.251Z,7.22
2022-10-12T23:42:57.090Z,6.43
2022-10-12T23:45:55.417Z,7.25
2022-10-12T23:48:52.294Z,7.60
2022-10-12T23:51:49.135Z,7.13
2022-10-12T23:54:45.980Z,6.95
2022-10-12T23:57:47.249Z,7.30
